sensor_id;sensor_type;location;lat;lon;timestamp;pressure;altitude;pressure_sealevel;temperature;humidity
86085;BME280;76694;53.530;50.016;2024-03-29T00:02:06;101145.78;;;-5.94;88.87
86085;BME280;76694;53.530;50.016;2024-03-29T00:07:09;101115.03;;;-6.13;88.85
86085;BME280;76694;53.530;50.016;2024-03-29T00:12:12;101126.44;;;-6.11;88.60
86085;BME280;76694;53.530;50.016;2024-03-29T00:17:14;101157.47;;;-5.93;89.08
86085;BME280;76694;53.530;50.016;2024-03-29T00:22:17;101166.13;;;-5.91;89.11
86085;BME280;76694;53.530;50.016;2024-03-29T00:27:20;101128.38;;;-6.16;89.31
86085;BME280;76694;53.530;50.016;2024-03-29T00:32:25;101149.47;;;-6.08;89.37
86085;BME280;76694;53.530;50.016;2024-03-29T00:37:28;101124.84;;;-6.17;89.21
86085;BME280;76694;53.530;50.016;2024-03-29T00:42:31;101152.19;;;-6.08;89.53
86085;BME280;76694;53.530;50.016;2024-03-29T00:47:33;101175.41;;;-5.92;89.70
86085;BME280;76694;53.530;50.016;2024-03-29T00:52:37;101155.72;;;-6.08;89.89
86085;BME280;76694;53.530;50.016;2024-03-29T00:57:39;101180.19;;;-5.84;90.09
86085;BME280;76694;53.530;50.016;2024-03-29T01:02:42;101188.59;;;-5.86;89.54
86085;BME280;76694;53.530;50.016;2024-03-29T01:07:44;101188.72;;;-5.96;88.44
86085;BME280;76694;53.530;50.016;2024-03-29T01:12:47;101153.84;;;-6.36;88.79
86085;BME280;76694;53.530;50.016;2024-03-29T01:17:49;101182.50;;;-6.25;88.14
86085;BME280;76694;53.530;50.016;2024-03-29T01:22:52;101201.41;;;-6.15;87.51
86085;BME280;76694;53.530;50.016;2024-03-29T01:27:55;101213.38;;;-6.16;86.74
86085;BME280;76694;53.530;50.016;2024-03-29T01:32:57;101192.47;;;-6.44;87.36
86085;BME280;76694;53.530;50.016;2024-03-29T01:38:00;101188.75;;;-6.53;87.60
86085;BME280;76694;53.530;50.016;2024-03-29T01:43:03;101199.16;;;-6.65;88.17
86085;BME280;76694;53.530;50.016;2024-03-29T01:48:07;101217.09;;;-6.69;88.19
86085;BME280;76694;53.530;50.016;2024-03-29T01:53:11;101197.47;;;-6.95;88.79
86085;BME280;76694;53.530;50.016;2024-03-29T01:58:14;101208.59;;;-6.96;88.73
86085;BME280;76694;53.530;50.016;2024-03-29T02:03:18;101250.50;;;-6.79;88.94
86085;BME280;76694;53.530;50.016;2024-03-29T02:08:20;101126.03;;;-7.68;89.10
86085;BME280;76694;53.530;50.016;2024-03-29T02:13:23;101241.69;;;-6.99;88.98
86085;BME280;76694;53.530;50.016;2024-03-29T02:18:26;101246.09;;;-7.08;89.06
86085;BME280;76694;53.530;50.016;2024-03-29T02:23:32;101239.63;;;-7.17;89.21
86085;BME280;76694;53.530;50.016;2024-03-29T02:28:38;101231.50;;;-7.17;88.83
86085;BME280;76694;53.530;50.016;2024-03-29T02:33:41;101268.25;;;-6.96;88.13
86085;BME280;76694;53.530;50.016;2024-03-29T02:38:43;101220.13;;;-7.24;88.23
86085;BME280;76694;53.530;50.016;2024-03-29T02:43:46;101275.28;;;-6.90;88.41
86085;BME280;76694;53.530;50.016;2024-03-29T02:48:48;101277.69;;;-6.84;87.92
86085;BME280;76694;53.530;50.016;2024-03-29T02:53:51;101203.03;;;-7.25;88.49
86085;BME280;76694;53.530;50.016;2024-03-29T02:58:54;101272.72;;;-6.72;88.41
86085;BME280;76694;53.530;50.016;2024-03-29T03:03:57;101287.78;;;-6.50;87.42
86085;BME280;76694;53.530;50.016;2024-03-29T03:09:00;101255.25;;;-6.56;86.45
86085;BME280;76694;53.530;50.016;2024-03-29T03:14:21;101271.31;;;-6.25;86.28
86085;BME280;76694;53.530;50.016;2024-03-29T03:19:24;101294.41;;;-5.94;86.74
86085;BME280;76694;53.530;50.016;2024-03-29T03:24:26;101220.91;;;-6.36;85.32
86085;BME280;76694;53.530;50.016;2024-03-29T03:29:29;101213.34;;;-6.11;85.40
86085;BME280;76694;53.530;50.016;2024-03-29T03:34:32;101289.03;;;-5.52;85.33
86085;BME280;76694;53.530;50.016;2024-03-29T03:39:35;101298.78;;;-4.99;86.06
86085;BME280;76694;53.530;50.016;2024-03-29T03:44:38;101294.66;;;-4.77;86.33
86085;BME280;76694;53.530;50.016;2024-03-29T03:49:41;101295.41;;;-4.53;85.92
86085;BME280;76694;53.530;50.016;2024-03-29T03:54:44;101320.84;;;-4.26;84.57
86085;BME280;76694;53.530;50.016;2024-03-29T03:59:51;101312.72;;;-3.93;84.25
86085;BME280;76694;53.530;50.016;2024-03-29T04:04:53;101280.88;;;-3.79;83.36
86085;BME280;76694;53.530;50.016;2024-03-29T04:09:56;101313.34;;;-3.23;82.43
86085;BME280;76694;53.530;50.016;2024-03-29T04:14:58;101304.78;;;-3.03;81.35
86085;BME280;76694;53.530;50.016;2024-03-29T04:20:01;101267.09;;;-3.01;81.10
86085;BME280;76694;53.530;50.016;2024-03-29T04:25:04;101280.88;;;-2.71;79.86
86085;BME280;76694;53.530;50.016;2024-03-29T04:30:08;101227.00;;;-2.79;79.10
86085;BME280;76694;53.530;50.016;2024-03-29T04:35:11;101246.97;;;-2.34;77.74
86085;BME280;76694;53.530;50.016;2024-03-29T04:40:13;101287.34;;;-1.87;76.64
86085;BME280;76694;53.530;50.016;2024-03-29T04:45:16;101270.69;;;-1.77;75.77
86085;BME280;76694;53.530;50.016;2024-03-29T04:50:19;101314.00;;;-1.09;75.07
86085;BME280;76694;53.530;50.016;2024-03-29T04:55:22;101296.00;;;-0.93;73.88
86085;BME280;76694;53.530;50.016;2024-03-29T05:00:24;101319.28;;;-0.47;73.79
86085;BME280;76694;53.530;50.016;2024-03-29T05:05:27;101317.84;;;-0.02;71.70
86085;BME280;76694;53.530;50.016;2024-03-29T05:10:30;101312.00;;;0.42;69.24
86085;BME280;76694;53.530;50.016;2024-03-29T05:15:33;101319.97;;;0.81;69.24
86085;BME280;76694;53.530;50.016;2024-03-29T05:20:37;101278.50;;;0.66;68.35
86085;BME280;76694;53.530;50.016;2024-03-29T05:25:43;101307.19;;;1.15;68.69
86085;BME280;76694;53.530;50.016;2024-03-29T05:30:45;101263.91;;;1.12;66.23
86085;BME280;76694;53.530;50.016;2024-03-29T05:35:48;101315.22;;;1.78;65.36
86085;BME280;76694;53.530;50.016;2024-03-29T05:40:51;101322.59;;;1.86;63.39
86085;BME280;76694;53.530;50.016;2024-03-29T05:45:54;101284.06;;;1.66;64.25
86085;BME280;76694;53.530;50.016;2024-03-29T05:50:57;101336.94;;;1.92;66.75
86085;BME280;76694;53.530;50.016;2024-03-29T05:55:59;101337.91;;;2.49;66.63
86085;BME280;76694;53.530;50.016;2024-03-29T06:01:02;101335.66;;;2.30;69.03
86085;BME280;76694;53.530;50.016;2024-03-29T06:06:05;101334.50;;;2.31;69.47
86085;BME280;76694;53.530;50.016;2024-03-29T06:11:09;101345.97;;;2.66;70.63
86085;BME280;76694;53.530;50.016;2024-03-29T06:16:12;101339.81;;;2.93;69.68
86085;BME280;76694;53.530;50.016;2024-03-29T06:21:33;101337.22;;;3.97;58.57
86085;BME280;76694;53.530;50.016;2024-03-29T06:26:41;101339.22;;;3.72;66.47
86085;BME280;76694;53.530;50.016;2024-03-29T06:31:44;101319.28;;;3.91;63.34
86085;BME280;76694;53.530;50.016;2024-03-29T06:36:47;101325.84;;;4.54;59.11
86085;BME280;76694;53.530;50.016;2024-03-29T06:41:51;101326.22;;;4.68;64.12
86085;BME280;76694;53.530;50.016;2024-03-29T06:46:54;101323.28;;;4.33;67.63
86085;BME280;76694;53.530;50.016;2024-03-29T06:51:56;101328.28;;;4.71;60.30
86085;BME280;76694;53.530;50.016;2024-03-29T06:57:02;101325.91;;;5.32;52.64
86085;BME280;76694;53.530;50.016;2024-03-29T07:02:05;101327.78;;;5.12;55.24
86085;BME280;76694;53.530;50.016;2024-03-29T07:07:08;101304.09;;;5.30;52.33
86085;BME280;76694;53.530;50.016;2024-03-29T07:12:12;101302.59;;;5.67;49.19
86085;BME280;76694;53.530;50.016;2024-03-29T07:17:14;101311.91;;;5.59;55.29
86085;BME280;76694;53.530;50.016;2024-03-29T07:22:17;101264.47;;;5.42;54.18
86085;BME280;76694;53.530;50.016;2024-03-29T07:27:20;101319.06;;;5.95;48.67
86085;BME280;76694;53.530;50.016;2024-03-29T07:32:23;101317.03;;;5.77;56.15
86085;BME280;76694;53.530;50.016;2024-03-29T07:37:25;101305.88;;;6.08;49.38
86085;BME280;76694;53.530;50.016;2024-03-29T07:42:28;101318.72;;;6.35;46.27
86085;BME280;76694;53.530;50.016;2024-03-29T07:47:31;101317.25;;;6.41;52.26
86085;BME280;76694;53.530;50.016;2024-03-29T07:52:34;101311.47;;;6.91;42.97
86085;BME280;76694;53.530;50.016;2024-03-29T07:57:36;101296.81;;;7.17;45.87
86085;BME280;76694;53.530;50.016;2024-03-29T08:02:39;101316.31;;;7.99;44.07
86085;BME280;76694;53.530;50.016;2024-03-29T08:07:42;101305.06;;;8.51;44.78
86085;BME280;76694;53.530;50.016;2024-03-29T08:12:44;101300.59;;;9.27;42.52
86085;BME280;76694;53.530;50.016;2024-03-29T08:17:47;101300.22;;;9.90;38.00
86085;BME280;76694;53.530;50.016;2024-03-29T08:22:52;101288.69;;;9.95;44.21
86085;BME280;76694;53.530;50.016;2024-03-29T08:27:56;101304.91;;;10.62;37.93
86085;BME280;76694;53.530;50.016;2024-03-29T08:33:04;101298.16;;;10.63;42.20
86085;BME280;76694;53.530;50.016;2024-03-29T08:38:06;101291.44;;;11.34;37.76
86085;BME280;76694;53.530;50.016;2024-03-29T08:43:09;101298.22;;;11.22;43.05
86085;BME280;76694;53.530;50.016;2024-03-29T08:48:12;101285.03;;;11.55;37.13
86085;BME280;76694;53.530;50.016;2024-03-29T08:53:15;101284.22;;;11.26;41.97
86085;BME280;76694;53.530;50.016;2024-03-29T08:58:18;101266.69;;;10.94;40.89
86085;BME280;76694;53.530;50.016;2024-03-29T09:03:23;101286.25;;;11.29;38.40
86085;BME280;76694;53.530;50.016;2024-03-29T09:08:25;101286.22;;;11.61;34.29
86085;BME280;76694;53.530;50.016;2024-03-29T09:13:28;101265.09;;;11.21;32.48
86085;BME280;76694;53.530;50.016;2024-03-29T09:18:32;101274.25;;;10.69;39.74
86085;BME280;76694;53.530;50.016;2024-03-29T09:23:35;101276.69;;;11.09;38.73
86085;BME280;76694;53.530;50.016;2024-03-29T09:28:38;101262.28;;;10.79;36.54
86085;BME280;76694;53.530;50.016;2024-03-29T09:33:41;101274.25;;;10.76;41.26
86085;BME280;76694;53.530;50.016;2024-03-29T09:38:44;101274.22;;;10.51;36.38
86085;BME280;76694;53.530;50.016;2024-03-29T09:43:47;101269.34;;;10.20;37.09
86085;BME280;76694;53.530;50.016;2024-03-29T09:48:51;101282.72;;;9.93;37.07
86085;BME280;76694;53.530;50.016;2024-03-29T09:53:57;101282.56;;;9.61;36.66
86085;BME280;76694;53.530;50.016;2024-03-29T09:59:01;101266.09;;;9.39;35.41
86085;BME280;76694;53.530;50.016;2024-03-29T10:04:06;101264.28;;;9.10;39.11
86085;BME280;76694;53.530;50.016;2024-03-29T10:09:10;101258.13;;;8.86;36.32
86085;BME280;76694;53.530;50.016;2024-03-29T10:14:13;101255.97;;;8.69;36.09
86085;BME280;76694;53.530;50.016;2024-03-29T10:19:16;101249.34;;;8.84;41.76
86085;BME280;76694;53.530;50.016;2024-03-29T10:24:19;101253.72;;;8.85;41.79
86085;BME280;76694;53.530;50.016;2024-03-29T10:29:28;101246.88;;;8.72;42.43
86085;BME280;76694;53.530;50.016;2024-03-29T10:34:31;101253.84;;;8.56;41.45
86085;BME280;76694;53.530;50.016;2024-03-29T10:39:42;101254.16;;;8.47;37.95
86085;BME280;76694;53.530;50.016;2024-03-29T10:44:45;101248.75;;;8.65;38.12
86085;BME280;76694;53.530;50.016;2024-03-29T10:49:51;101233.03;;;8.39;40.44
86085;BME280;76694;53.530;50.016;2024-03-29T10:54:54;101199.94;;;8.71;45.81
86085;BME280;76694;53.530;50.016;2024-03-29T11:00:13;101234.84;;;9.09;45.79
86085;BME280;76694;53.530;50.016;2024-03-29T11:05:21;101228.72;;;8.89;39.03
86085;BME280;76694;53.530;50.016;2024-03-29T11:10:36;101214.41;;;8.90;44.84
86085;BME280;76694;53.530;50.016;2024-03-29T11:15:44;101232.47;;;9.11;37.42
86085;BME280;76694;53.530;50.016;2024-03-29T11:20:48;101206.09;;;8.94;38.83
86085;BME280;76694;53.530;50.016;2024-03-29T11:25:55;101230.28;;;8.86;37.97
86085;BME280;76694;53.530;50.016;2024-03-29T11:31:03;101224.25;;;8.81;40.00
86085;BME280;76694;53.530;50.016;2024-03-29T11:36:16;101218.16;;;8.65;40.76
86085;BME280;76694;53.530;50.016;2024-03-29T11:41:27;101220.28;;;8.78;38.14
86085;BME280;76694;53.530;50.016;2024-03-29T11:46:32;101224.19;;;8.70;42.28
86085;BME280;76694;53.530;50.016;2024-03-29T11:51:37;101211.78;;;8.61;38.99
86085;BME280;76694;53.530;50.016;2024-03-29T11:56:42;101226.19;;;8.73;49.09
86085;BME280;76694;53.530;50.016;2024-03-29T12:01:45;101219.13;;;8.39;38.89
86085;BME280;76694;53.530;50.016;2024-03-29T12:06:49;101212.97;;;8.60;38.92
86085;BME280;76694;53.530;50.016;2024-03-29T12:11:52;101206.09;;;8.50;38.06
86085;BME280;76694;53.530;50.016;2024-03-29T12:16:55;101209.00;;;8.64;39.60
86085;BME280;76694;53.530;50.016;2024-03-29T12:21:58;101195.16;;;8.68;41.48
86085;BME280;76694;53.530;50.016;2024-03-29T12:27:00;101214.22;;;8.66;42.14
86085;BME280;76694;53.530;50.016;2024-03-29T12:32:04;101193.69;;;8.84;50.88
86085;BME280;76694;53.530;50.016;2024-03-29T12:37:08;101208.59;;;8.62;47.36
86085;BME280;76694;53.530;50.016;2024-03-29T12:42:11;101201.66;;;8.42;51.47
86085;BME280;76694;53.530;50.016;2024-03-29T12:47:15;101208.00;;;8.39;52.13
86085;BME280;76694;53.530;50.016;2024-03-29T12:52:17;101196.16;;;7.79;50.56
86085;BME280;76694;53.530;50.016;2024-03-29T12:57:20;101214.72;;;7.72;50.36
86085;BME280;76694;53.530;50.016;2024-03-29T13:02:23;101202.97;;;7.22;51.13
86085;BME280;76694;53.530;50.016;2024-03-29T13:07:25;101226.75;;;6.97;51.38
86085;BME280;76694;53.530;50.016;2024-03-29T13:12:29;101228.44;;;6.79;52.35
86085;BME280;76694;53.530;50.016;2024-03-29T13:17:33;101215.06;;;6.62;52.01
86085;BME280;76694;53.530;50.016;2024-03-29T13:22:36;101240.34;;;6.38;49.64
86085;BME280;76694;53.530;50.016;2024-03-29T13:27:41;101244.75;;;6.39;52.42
86085;BME280;76694;53.530;50.016;2024-03-29T13:32:44;101231.72;;;6.20;53.16
86085;BME280;76694;53.530;50.016;2024-03-29T13:37:50;101237.34;;;6.05;53.41
86085;BME280;76694;53.530;50.016;2024-03-29T13:42:55;101218.66;;;5.83;53.86
86085;BME280;76694;53.530;50.016;2024-03-29T13:47:58;101228.72;;;5.71;53.90
86085;BME280;76694;53.530;50.016;2024-03-29T13:53:01;101220.94;;;5.58;54.01
86085;BME280;76694;53.530;50.016;2024-03-29T13:58:04;101237.97;;;5.60;53.62
86085;BME280;76694;53.530;50.016;2024-03-29T14:03:06;101227.94;;;5.36;54.61
86085;BME280;76694;53.530;50.016;2024-03-29T14:08:09;101243.66;;;5.32;54.50
86085;BME280;76694;53.530;50.016;2024-03-29T14:13:11;101223.03;;;4.95;54.99
86085;BME280;76694;53.530;50.016;2024-03-29T14:18:14;101247.59;;;4.81;55.68
86085;BME280;76694;53.530;50.016;2024-03-29T14:23:17;101214.59;;;4.41;51.80
86085;BME280;76694;53.530;50.016;2024-03-29T14:28:23;101237.22;;;4.47;57.20
86085;BME280;76694;53.530;50.016;2024-03-29T14:33:26;101244.59;;;4.27;57.11
86085;BME280;76694;53.530;50.016;2024-03-29T14:38:29;101248.88;;;3.69;56.94
86085;BME280;76694;53.530;50.016;2024-03-29T14:43:31;101241.50;;;2.97;60.43
86085;BME280;76694;53.530;50.016;2024-03-29T14:48:34;101239.56;;;2.62;64.11
86085;BME280;76694;53.530;50.016;2024-03-29T14:53:37;101245.56;;;2.31;65.75
86085;BME280;76694;53.530;50.016;2024-03-29T14:58:40;101243.19;;;1.97;67.93
86085;BME280;76694;53.530;50.016;2024-03-29T15:03:42;101250.06;;;1.91;68.01
86085;BME280;76694;53.530;50.016;2024-03-29T15:08:45;101239.97;;;1.12;69.17
86085;BME280;76694;53.530;50.016;2024-03-29T15:13:48;101258.16;;;0.96;68.63
86085;BME280;76694;53.530;50.016;2024-03-29T15:18:52;101238.66;;;0.89;69.76
86085;BME280;76694;53.530;50.016;2024-03-29T15:23:56;101268.72;;;0.86;69.30
86085;BME280;76694;53.530;50.016;2024-03-29T15:28:59;101248.78;;;0.13;69.37
86085;BME280;76694;53.530;50.016;2024-03-29T15:34:12;101264.81;;;-0.15;71.64
86085;BME280;76694;53.530;50.016;2024-03-29T15:39:16;101241.09;;;-0.19;71.48
86085;BME280;76694;53.530;50.016;2024-03-29T15:44:22;101252.06;;;-0.45;72.74
86085;BME280;76694;53.530;50.016;2024-03-29T15:49:24;101255.13;;;-0.46;73.50
86085;BME280;76694;53.530;50.016;2024-03-29T15:54:27;101263.13;;;-0.93;73.79
86085;BME280;76694;53.530;50.016;2024-03-29T15:59:30;101275.97;;;-1.02;75.48
86085;BME280;76694;53.530;50.016;2024-03-29T16:04:32;101293.56;;;-1.03;75.32
86085;BME280;76694;53.530;50.016;2024-03-29T16:09:35;101280.13;;;-1.21;75.59
86085;BME280;76694;53.530;50.016;2024-03-29T16:14:38;101281.03;;;-1.34;76.21
86085;BME280;76694;53.530;50.016;2024-03-29T16:19:40;101274.31;;;-1.59;76.96
86085;BME280;76694;53.530;50.016;2024-03-29T16:24:43;101268.19;;;-1.65;76.70
86085;BME280;76694;53.530;50.016;2024-03-29T16:29:46;101242.78;;;-2.09;78.31
86085;BME280;76694;53.530;50.016;2024-03-29T16:34:48;101271.13;;;-2.05;79.21
86085;BME280;76694;53.530;50.016;2024-03-29T16:39:51;101253.09;;;-2.28;79.93
86085;BME280;76694;53.530;50.016;2024-03-29T16:44:54;101258.16;;;-2.22;79.02
86085;BME280;76694;53.530;50.016;2024-03-29T16:49:59;101265.50;;;-2.31;79.34
86085;BME280;76694;53.530;50.016;2024-03-29T16:55:03;101271.63;;;-2.48;81.18
86085;BME280;76694;53.530;50.016;2024-03-29T17:00:08;101271.03;;;-2.58;82.70
86085;BME280;76694;53.530;50.016;2024-03-29T17:05:14;101266.41;;;-2.58;82.73
86085;BME280;76694;53.530;50.016;2024-03-29T17:10:18;101265.81;;;-2.68;82.71
86085;BME280;76694;53.530;50.016;2024-03-29T17:15:20;101274.78;;;-2.68;81.82
86085;BME280;76694;53.530;50.016;2024-03-29T17:20:23;101279.25;;;-2.72;83.10
86085;BME280;76694;53.530;50.016;2024-03-29T17:25:26;101270.28;;;-2.72;84.00
86085;BME280;76694;53.530;50.016;2024-03-29T17:30:29;101249.25;;;-2.85;83.16
86085;BME280;76694;53.530;50.016;2024-03-29T17:35:32;101263.72;;;-2.85;83.45
86085;BME280;76694;53.530;50.016;2024-03-29T17:40:53;101258.94;;;-2.93;83.87
86085;BME280;76694;53.530;50.016;2024-03-29T17:45:55;101243.22;;;-3.09;82.88
86085;BME280;76694;53.530;50.016;2024-03-29T17:50:58;101251.81;;;-3.02;83.36
86085;BME280;76694;53.530;50.016;2024-03-29T17:56:01;101224.53;;;-3.30;83.34
86085;BME280;76694;53.530;50.016;2024-03-29T18:01:04;101261.72;;;-3.06;82.72
86085;BME280;76694;53.530;50.016;2024-03-29T18:06:07;101271.63;;;-3.10;83.25
86085;BME280;76694;53.530;50.016;2024-03-29T18:11:09;101262.53;;;-3.19;83.50
86085;BME280;76694;53.530;50.016;2024-03-29T18:16:18;101266.47;;;-3.12;84.16
86085;BME280;76694;53.530;50.016;2024-03-29T18:21:21;101256.19;;;-3.29;83.84
86085;BME280;76694;53.530;50.016;2024-03-29T18:26:24;101248.50;;;-3.54;84.34
86085;BME280;76694;53.530;50.016;2024-03-29T18:31:27;101254.56;;;-3.43;84.55
86085;BME280;76694;53.530;50.016;2024-03-29T18:36:31;101269.59;;;-3.32;82.45
86085;BME280;76694;53.530;50.016;2024-03-29T18:41:34;101266.19;;;-3.38;83.70
86085;BME280;76694;53.530;50.016;2024-03-29T18:46:37;101270.44;;;-3.45;84.26
86085;BME280;76694;53.530;50.016;2024-03-29T18:51:39;101269.00;;;-3.56;83.66
86085;BME280;76694;53.530;50.016;2024-03-29T18:56:42;101239.78;;;-3.69;84.63
86085;BME280;76694;53.530;50.016;2024-03-29T19:01:45;101261.50;;;-3.64;85.06
86085;BME280;76694;53.530;50.016;2024-03-29T19:06:50;101257.47;;;-3.67;85.80
86085;BME280;76694;53.530;50.016;2024-03-29T19:11:53;101257.78;;;-3.68;84.63
86085;BME280;76694;53.530;50.016;2024-03-29T19:16:57;101252.19;;;-3.77;83.87
86085;BME280;76694;53.530;50.016;2024-03-29T19:21:59;101255.50;;;-3.80;84.74
86085;BME280;76694;53.530;50.016;2024-03-29T19:27:03;101258.47;;;-3.76;84.88
86085;BME280;76694;53.530;50.016;2024-03-29T19:32:06;101249.84;;;-3.83;85.45
86085;BME280;76694;53.530;50.016;2024-03-29T19:37:08;101271.66;;;-3.83;84.81
86085;BME280;76694;53.530;50.016;2024-03-29T19:42:11;101262.03;;;-3.94;84.79
86085;BME280;76694;53.530;50.016;2024-03-29T19:47:14;101257.78;;;-4.00;85.72
86085;BME280;76694;53.530;50.016;2024-03-29T19:52:17;101252.25;;;-3.95;86.76
86085;BME280;76694;53.530;50.016;2024-03-29T19:57:19;101261.63;;;-4.01;86.84
86085;BME280;76694;53.530;50.016;2024-03-29T20:02:22;101243.13;;;-4.18;87.06
86085;BME280;76694;53.530;50.016;2024-03-29T20:07:25;101234.81;;;-4.27;86.56
86085;BME280;76694;53.530;50.016;2024-03-29T20:12:27;101261.56;;;-4.15;85.04
86085;BME280;76694;53.530;50.016;2024-03-29T20:17:31;101258.44;;;-4.22;84.75
86085;BME280;76694;53.530;50.016;2024-03-29T20:22:34;101246.59;;;-4.31;85.50
86085;BME280;76694;53.530;50.016;2024-03-29T20:27:36;101270.94;;;-4.21;85.73
86085;BME280;76694;53.530;50.016;2024-03-29T20:32:40;101262.72;;;-4.35;84.35
86085;BME280;76694;53.530;50.016;2024-03-29T20:37:43;101259.78;;;-4.38;84.66
86085;BME280;76694;53.530;50.016;2024-03-29T20:42:45;101259.63;;;-4.28;83.21
86085;BME280;76694;53.530;50.016;2024-03-29T20:47:48;101268.69;;;-4.33;82.70
86085;BME280;76694;53.530;50.016;2024-03-29T20:52:52;101244.72;;;-4.49;82.53
86085;BME280;76694;53.530;50.016;2024-03-29T20:57:55;101275.22;;;-4.34;82.55
86085;BME280;76694;53.530;50.016;2024-03-29T21:02:58;101273.47;;;-4.43;84.30
86085;BME280;76694;53.530;50.016;2024-03-29T21:08:20;101229.06;;;-4.76;85.80
86085;BME280;76694;53.530;50.016;2024-03-29T21:13:22;101273.53;;;-4.48;82.84
86085;BME280;76694;53.530;50.016;2024-03-29T21:18:25;101275.53;;;-4.54;84.87
86085;BME280;76694;53.530;50.016;2024-03-29T21:23:28;101275.53;;;-4.54;85.79
86085;BME280;76694;53.530;50.016;2024-03-29T21:28:31;101258.25;;;-4.63;85.55
86085;BME280;76694;53.530;50.016;2024-03-29T21:33:37;101259.06;;;-4.62;86.00
86085;BME280;76694;53.530;50.016;2024-03-29T21:38:41;101241.34;;;-4.78;86.06
86085;BME280;76694;53.530;50.016;2024-03-29T21:43:43;101227.59;;;-4.87;85.09
86085;BME280;76694;53.530;50.016;2024-03-29T21:48:46;101266.50;;;-4.68;86.28
86085;BME280;76694;53.530;50.016;2024-03-29T21:53:49;101257.72;;;-4.65;84.43
86085;BME280;76694;53.530;50.016;2024-03-29T21:58:52;101249.88;;;-4.66;82.47
86085;BME280;76694;53.530;50.016;2024-03-29T22:03:54;101220.28;;;-4.92;82.54
86085;BME280;76694;53.530;50.016;2024-03-29T22:09:00;101229.94;;;-4.99;82.85
86085;BME280;76694;53.530;50.016;2024-03-29T22:14:03;101281.34;;;-4.79;84.70
86085;BME280;76694;53.530;50.016;2024-03-29T22:19:06;101261.56;;;-4.84;82.55
86085;BME280;76694;53.530;50.016;2024-03-29T22:24:09;101262.75;;;-4.72;82.15
86085;BME280;76694;53.530;50.016;2024-03-29T22:29:13;101267.91;;;-4.70;82.77
86085;BME280;76694;53.530;50.016;2024-03-29T22:34:16;101268.78;;;-4.56;83.81
86085;BME280;76694;53.530;50.016;2024-03-29T22:39:19;101208.53;;;-4.68;84.30
86085;BME280;76694;53.530;50.016;2024-03-29T22:44:21;101243.50;;;-4.25;84.65
86085;BME280;76694;53.530;50.016;2024-03-29T22:49:24;101250.72;;;-4.01;83.34
86085;BME280;76694;53.530;50.016;2024-03-29T22:54:27;101228.13;;;-4.02;84.45
86085;BME280;76694;53.530;50.016;2024-03-29T22:59:29;101170.97;;;-4.21;83.70
86085;BME280;76694;53.530;50.016;2024-03-29T23:04:32;101212.22;;;-3.68;84.29
86085;BME280;76694;53.530;50.016;2024-03-29T23:09:35;101185.97;;;-3.77;83.31
86085;BME280;76694;53.530;50.016;2024-03-29T23:14:37;101174.66;;;-3.71;84.27
86085;BME280;76694;53.530;50.016;2024-03-29T23:19:40;101159.22;;;-3.62;85.35
86085;BME280;76694;53.530;50.016;2024-03-29T23:24:42;101191.78;;;-3.16;85.44
86085;BME280;76694;53.530;50.016;2024-03-29T23:29:45;101224.13;;;-2.74;85.51
86085;BME280;76694;53.530;50.016;2024-03-29T23:34:48;101231.91;;;-2.67;86.85
86085;BME280;76694;53.530;50.016;2024-03-29T23:39:51;101211.53;;;-2.97;85.28
86085;BME280;76694;53.530;50.016;2024-03-29T23:44:53;101226.91;;;-2.87;85.50
86085;BME280;76694;53.530;50.016;2024-03-29T23:49:57;101194.88;;;-2.95;85.85
86085;BME280;76694;53.530;50.016;2024-03-29T23:55:02;101217.91;;;-2.88;85.57
